createdAt,value
2018-09-03T10:19:49.568Z,961.88
2018-09-03T10:20:49.614Z,956.25
2018-09-03T10:21:49.527Z,961.88
2018-09-03T10:22:49.511Z,967.50
2018-09-03T10:23:49.495Z,967.50
2018-09-03T10:24:49.489Z,933.75
2018-09-03T10:25:49.481Z,894.38
2018-09-03T10:26:49.453Z,849.38
2018-09-03T10:27:49.441Z,832.50
2018-09-03T10:28:49.485Z,781.88
2018-09-03T10:29:49.422Z,742.50
2018-09-03T10:30:49.412Z,770.63
2018-09-03T10:31:49.423Z,781.88
2018-09-03T10:32:49.396Z,804.38
2018-09-03T10:33:49.363Z,810.00
2018-09-03T10:34:49.371Z,776.25
2018-09-03T10:35:49.353Z,708.75
2018-09-03T10:36:49.321Z,658.13
2018-09-03T10:37:49.308Z,624.38
2018-09-03T10:38:49.315Z,624.38
2018-09-03T10:39:49.299Z,601.88
2018-09-03T10:40:49.304Z,568.13
2018-09-03T10:41:49.264Z,551.25
2018-09-03T10:42:49.246Z,528.75
2018-09-03T10:43:49.252Z,523.13
2018-09-03T10:44:49.220Z,534.38
2018-09-03T10:45:49.238Z,556.88
2018-09-03T10:46:49.219Z,607.50
2018-09-03T10:47:49.183Z,646.88
2018-09-03T10:48:49.172Z,686.25
2018-09-03T10:49:49.190Z,714.38
2018-09-03T10:50:49.168Z,742.50
2018-09-03T10:51:49.157Z,759.38
2018-09-03T10:52:49.120Z,776.25
2018-09-03T10:53:49.129Z,787.50
2018-09-03T10:54:49.099Z,793.13
2018-09-03T10:55:49.123Z,810.00
2018-09-03T10:56:49.640Z,815.63
2018-09-03T10:57:49.058Z,821.25
2018-09-03T10:58:49.044Z,821.25
2018-09-03T10:59:49.052Z,815.63
2018-09-03T11:00:49.030Z,821.25
2018-09-03T11:01:49.021Z,810.00
2018-09-03T11:02:48.994Z,748.13
2018-09-03T11:03:48.982Z,663.75
2018-09-03T11:04:48.979Z,601.88
2018-09-03T11:05:49.020Z,590.63
2018-09-03T11:06:48.970Z,601.88
2018-09-03T11:07:48.931Z,630.00
2018-09-03T11:08:48.951Z,663.75
2018-09-03T11:09:48.904Z,708.75
2018-09-03T11:10:58.757Z,753.75
2018-09-03T11:11:48.880Z,798.75
2018-09-03T11:12:48.885Z,832.50
2018-09-03T11:13:48.883Z,860.63
2018-09-03T11:14:48.868Z,877.50
2018-09-03T11:15:48.842Z,894.38
2018-09-03T11:16:48.882Z,911.25
2018-09-03T11:17:48.819Z,922.50
2018-09-03T11:18:48.792Z,945.00
2018-09-03T11:19:48.788Z,950.63
2018-09-03T11:20:48.774Z,973.13
2018-09-03T11:21:48.779Z,984.38
2018-09-03T11:22:48.760Z,1006.88
2018-09-03T11:23:48.746Z,1006.88
2018-09-03T11:24:48.735Z,1018.13
2018-09-03T11:25:48.705Z,1046.25
2018-09-03T11:26:48.710Z,1074.38
2018-09-03T11:27:48.708Z,1091.25
2018-09-03T11:28:48.743Z,1096.88
2018-09-03T11:29:48.661Z,1080.00
2018-09-03T11:30:48.644Z,1074.38
2018-09-03T11:31:48.637Z,1074.38
2018-09-03T11:32:48.632Z,1080.00
2018-09-03T11:33:48.612Z,1096.88
2018-09-03T11:34:48.626Z,1125.00
2018-09-03T11:35:48.589Z,1125.00
2018-09-03T11:36:48.574Z,1136.25
2018-09-03T11:37:48.598Z,1158.75
2018-09-03T11:38:48.564Z,1130.63
2018-09-03T11:39:48.546Z,1119.38
2018-09-03T11:40:48.693Z,1108.13
2018-09-03T11:41:48.519Z,1170.00
2018-09-03T11:42:48.520Z,1243.13
2018-09-03T11:43:48.504Z,1276.88
2018-09-03T11:44:48.510Z,1293.75
2018-09-03T11:45:48.483Z,1237.50
2018-09-03T11:46:48.461Z,1203.75
2018-09-03T11:47:48.450Z,1170.00
2018-09-03T11:48:48.456Z,1141.88
2018-09-03T11:49:48.427Z,1096.88
2018-09-03T11:50:48.413Z,1074.38
2018-09-03T11:51:48.404Z,1051.88
2018-09-03T11:52:48.396Z,1046.25
2018-09-03T11:53:48.394Z,1023.75
2018-09-03T11:54:48.373Z,973.13
2018-09-03T11:55:48.360Z,945.00
2018-09-03T11:56:48.352Z,928.13
2018-09-03T11:57:48.337Z,945.00
2018-09-03T11:58:48.343Z,950.63
2018-09-03T11:59:48.327Z,939.38
2018-09-03T12:00:48.305Z,933.75
2018-09-03T12:01:48.295Z,939.38
2018-09-03T12:02:48.283Z,950.63
2018-09-03T12:03:48.282Z,945.00
2018-09-03T12:04:48.284Z,950.63
2018-09-03T12:05:48.249Z,973.13
2018-09-03T12:06:48.277Z,984.38
2018-09-03T12:07:48.225Z,967.50
2018-09-03T12:08:48.215Z,973.13
2018-09-03T12:09:48.208Z,978.75
2018-09-03T12:10:48.199Z,1023.75
2018-09-03T12:11:48.184Z,1006.88
2018-09-03T12:12:48.170Z,1023.75
2018-09-03T12:13:48.159Z,1130.63
2018-09-03T12:14:48.148Z,1186.88
2018-09-03T12:15:48.750Z,1203.75
2018-09-03T12:16:48.164Z,1226.25
2018-09-03T12:17:48.116Z,1243.13
2018-09-03T12:18:48.106Z,1265.63
2018-09-03T12:19:48.100Z,1265.63
2018-09-03T12:20:48.113Z,1248.75
2018-09-03T12:21:48.075Z,1198.13
2018-09-03T12:22:48.062Z,1175.63
2018-09-03T12:23:48.084Z,1113.75
2018-09-03T12:24:48.038Z,1080.00
2018-09-03T12:25:48.038Z,1068.75
2018-09-03T12:26:48.014Z,1063.13
2018-09-03T12:27:48.005Z,1063.13
2018-09-03T12:28:47.998Z,1040.63
2018-09-03T12:29:47.984Z,1001.25
2018-09-03T12:30:47.994Z,961.88
2018-09-03T12:31:47.962Z,933.75
2018-09-03T12:32:47.950Z,911.25
2018-09-03T12:33:47.949Z,911.25
2018-09-03T12:34:47.928Z,990.00
2018-09-03T12:35:47.920Z,939.38
2018-09-03T12:36:47.934Z,928.13
2018-09-03T12:37:47.904Z,911.25
2018-09-03T12:38:47.887Z,855.00
2018-09-03T12:39:47.873Z,810.00
2018-09-03T12:40:47.864Z,759.38
2018-09-03T12:41:47.856Z,714.38
2018-09-03T12:42:47.927Z,680.63
2018-09-03T12:43:47.829Z,635.63
2018-09-03T12:44:47.826Z,613.13
2018-09-03T12:45:47.807Z,624.38
2018-09-03T12:46:47.798Z,669.38
2018-09-03T12:47:47.800Z,720.00
2018-09-03T12:48:47.774Z,753.75
2018-09-03T12:49:47.764Z,765.00
2018-09-03T12:50:47.753Z,781.88
2018-09-03T12:51:47.745Z,832.50
2018-09-03T12:52:47.751Z,866.25
2018-09-03T12:53:47.723Z,894.38
2018-09-03T12:54:47.713Z,933.75
2018-09-03T12:55:47.696Z,1006.88
2018-09-03T12:56:47.710Z,1057.50
2018-09-03T12:57:47.682Z,1051.88
2018-09-03T12:58:47.704Z,956.25
2018-09-03T12:59:47.652Z,843.75
2018-09-03T13:00:47.649Z,725.63
2018-09-03T13:01:47.631Z,641.25
2018-09-03T13:02:47.646Z,585.00
2018-09-03T13:03:47.606Z,545.63
2018-09-03T13:04:47.592Z,534.38
2018-09-03T13:05:47.589Z,545.63
2018-09-03T13:06:47.572Z,562.50
2018-09-03T13:07:47.574Z,579.38
2018-09-03T13:08:47.550Z,601.88
2018-09-03T13:09:47.537Z,624.38
2018-09-03T13:10:47.523Z,635.63
2018-09-03T13:11:47.519Z,635.63
2018-09-03T13:12:47.545Z,624.38
2018-09-03T13:13:47.490Z,590.63
2018-09-03T13:14:47.480Z,556.88
2018-09-03T13:15:47.469Z,540.00
2018-09-03T13:16:47.456Z,489.38
2018-09-03T13:17:47.459Z,427.50
2018-09-03T13:18:47.439Z,388.13
2018-09-03T13:19:47.430Z,354.38
2018-09-03T13:20:47.407Z,337.50
2018-09-03T13:21:47.399Z,337.50
2018-09-03T13:22:47.399Z,337.50
2018-09-03T13:23:47.371Z,337.50
2018-09-03T13:24:47.420Z,337.50
2018-09-03T13:25:47.349Z,348.75
2018-09-03T13:26:47.334Z,360.00
2018-09-03T13:27:47.331Z,399.38
2018-09-03T13:28:47.311Z,444.38
2018-09-03T13:29:47.300Z,495.00
2018-09-03T13:30:47.317Z,534.38
2018-09-03T13:31:47.271Z,590.63
2018-09-03T13:32:47.276Z,630.00
2018-09-03T13:33:47.250Z,635.63
2018-09-03T13:34:47.237Z,624.38
2018-09-03T13:35:47.223Z,596.25
2018-09-03T13:36:47.213Z,568.13
2018-09-03T13:37:47.211Z,545.63
2018-09-03T13:38:47.190Z,523.13
2018-09-03T13:39:47.180Z,506.25
2018-09-03T13:40:47.165Z,489.38
2018-09-03T13:41:47.150Z,483.75
2018-09-03T13:42:47.149Z,478.13
2018-09-03T13:43:47.125Z,461.25
2018-09-03T13:44:47.113Z,433.13
2018-09-03T13:45:47.102Z,410.63
2018-09-03T13:46:47.089Z,393.75
2018-09-03T13:47:47.084Z,388.13
2018-09-03T13:48:47.062Z,376.88
2018-09-03T13:49:47.051Z,360.00
2018-09-03T13:50:47.803Z,343.13
2018-09-03T13:51:47.023Z,331.88
2018-09-03T13:52:47.027Z,326.25
2018-09-03T13:53:47.000Z,326.25
2018-09-03T13:54:47.005Z,326.25
2018-09-03T13:55:46.974Z,331.88
2018-09-03T13:56:47.008Z,337.50
2018-09-03T13:57:46.966Z,343.13
2018-09-03T13:58:46.936Z,354.38
2018-09-03T13:59:46.924Z,360.00
2018-09-03T14:00:46.910Z,376.88
2018-09-03T14:01:46.898Z,399.38
2018-09-03T14:02:46.884Z,416.25
2018-09-03T14:03:46.886Z,416.25
2018-09-03T14:04:46.866Z,433.13
2018-09-03T14:05:46.849Z,450.00
2018-09-03T14:06:46.844Z,472.50
2018-09-03T14:07:46.855Z,478.13
2018-09-03T14:08:46.822Z,478.13
2018-09-03T14:09:46.842Z,466.88
2018-09-03T14:10:46.790Z,450.00
2018-09-03T14:11:46.783Z,438.75
2018-09-03T14:12:46.761Z,421.88
